sensor_id;sensor_type;location;lat;lon;timestamp;pressure;altitude;pressure_sealevel;temperature;humidity
60337;BME280;46978;50.288;28.624;2022-11-20T00:00:04;99388.77;;;-9.68;100.00
60337;BME280;46978;50.288;28.624;2022-11-20T00:01:18;99393.13;;;-9.66;100.00
60337;BME280;46978;50.288;28.624;2022-11-20T00:02:12;99395.64;;;-9.66;100.00
60337;BME280;46978;50.288;28.624;2022-11-20T00:03:13;99393.98;;;-9.65;100.00
60337;BME280;46978;50.288;28.624;2022-11-20T00:04:15;99394.08;;;-9.64;100.00
60337;BME280;46978;50.288;28.624;2022-11-20T00:05:17;99392.45;;;-9.63;100.00
60337;BME280;46978;50.288;28.624;2022-11-20T00:06:21;99399.20;;;-9.62;99.79
60337;BME280;46978;50.288;28.624;2022-11-20T00:07:23;99396.69;;;-9.62;99.71
60337;BME280;46978;50.288;28.624;2022-11-20T00:08:25;99394.27;;;-9.61;99.76
60337;BME280;46978;50.288;28.624;2022-11-20T00:09:27;99407.11;;;-9.56;99.90
60337;BME280;46978;50.288;28.624;2022-11-20T00:10:29;99402.28;;;-9.53;100.00
60337;BME280;46978;50.288;28.624;2022-11-20T00:11:31;99402.47;;;-9.50;100.00
60337;BME280;46978;50.288;28.624;2022-11-20T00:12:33;99403.55;;;-9.46;100.00
60337;BME280;46978;50.288;28.624;2022-11-20T00:13:35;99408.77;;;-9.43;100.00
60337;BME280;46978;50.288;28.624;2022-11-20T00:14:36;99401.23;;;-9.43;100.00
60337;BME280;46978;50.288;28.624;2022-11-20T00:15:38;99408.86;;;-9.42;99.99
60337;BME280;46978;50.288;28.624;2022-11-20T00:16:40;99408.06;;;-9.41;100.00
60337;BME280;46978;50.288;28.624;2022-11-20T00:17:42;99410.77;;;-9.38;100.00
60337;BME280;46978;50.288;28.624;2022-11-20T00:18:44;99410.77;;;-9.38;99.97
60337;BME280;46978;50.288;28.624;2022-11-20T00:19:46;99404.97;;;-9.37;99.95
60337;BME280;46978;50.288;28.624;2022-11-20T00:20:47;99405.06;;;-9.35;99.95
60337;BME280;46978;50.288;28.624;2022-11-20T00:21:49;99410.19;;;-9.33;100.00
60337;BME280;46978;50.288;28.624;2022-11-20T00:22:51;99407.00;;;-9.31;100.00
60337;BME280;46978;50.288;28.624;2022-11-20T00:23:55;99413.84;;;-9.28;100.00
60337;BME280;46978;50.288;28.624;2022-11-20T00:24:57;99418.19;;;-9.26;100.00
60337;BME280;46978;50.288;28.624;2022-11-20T00:26:04;99420.80;;;-9.24;100.00
60337;BME280;46978;50.288;28.624;2022-11-20T00:27:07;99422.55;;;-9.23;99.95
60337;BME280;46978;50.288;28.624;2022-11-20T00:28:08;99420.89;;;-9.23;99.80
60337;BME280;46978;50.288;28.624;2022-11-20T00:29:10;99420.13;;;-9.22;99.78
60337;BME280;46978;50.288;28.624;2022-11-20T00:30:14;99413.73;;;-9.16;99.84
60337;BME280;46978;50.288;28.624;2022-11-20T00:31:16;99408.00;;;-9.14;100.00
60337;BME280;46978;50.288;28.624;2022-11-20T00:32:17;99408.00;;;-9.14;100.00
60337;BME280;46978;50.288;28.624;2022-11-20T00:33:19;99399.78;;;-9.11;100.00
60337;BME280;46978;50.288;28.624;2022-11-20T00:34:21;99401.63;;;-9.09;100.00
60337;BME280;46978;50.288;28.624;2022-11-20T00:35:23;99405.18;;;-9.05;100.00
60337;BME280;46978;50.288;28.624;2022-11-20T00:36:26;99401.91;;;-9.04;100.00
60337;BME280;46978;50.288;28.624;2022-11-20T00:37:29;99401.99;;;-9.03;99.90
60337;BME280;46978;50.288;28.624;2022-11-20T00:38:31;99402.84;;;-9.02;99.85
60337;BME280;46978;50.288;28.624;2022-11-20T00:39:33;99402.08;;;-9.01;99.78
60337;BME280;46978;50.288;28.624;2022-11-20T00:40:35;99398.77;;;-9.00;99.75
60337;BME280;46978;50.288;28.624;2022-11-20T00:41:36;99392.98;;;-8.99;99.77
60337;BME280;46978;50.288;28.624;2022-11-20T00:42:38;99388.13;;;-8.96;99.82
60337;BME280;46978;50.288;28.624;2022-11-20T00:43:41;99384.95;;;-8.93;99.82
60337;BME280;46978;50.288;28.624;2022-11-20T00:44:42;99380.00;;;-8.92;99.77
60337;BME280;46978;50.288;28.624;2022-11-20T00:45:44;99380.00;;;-8.92;99.60
60337;BME280;46978;50.288;28.624;2022-11-20T00:46:46;99382.52;;;-8.92;99.19
60337;BME280;46978;50.288;28.624;2022-11-20T00:47:48;99379.91;;;-8.93;99.21
60337;BME280;46978;50.288;28.624;2022-11-20T00:48:50;99374.09;;;-8.92;99.28
60337;BME280;46978;50.288;28.624;2022-11-20T00:49:52;99384.14;;;-8.92;98.98
60337;BME280;46978;50.288;28.624;2022-11-20T00:50:54;99383.28;;;-8.93;98.92
60337;BME280;46978;50.288;28.624;2022-11-20T00:51:56;99379.91;;;-8.93;99.01
60337;BME280;46978;50.288;28.624;2022-11-20T00:52:58;99380.86;;;-8.91;99.23
60337;BME280;46978;50.288;28.624;2022-11-20T00:54:00;99377.48;;;-8.92;99.26
60337;BME280;46978;50.288;28.624;2022-11-20T00:55:01;99382.61;;;-8.90;99.15
60337;BME280;46978;50.288;28.624;2022-11-20T00:56:05;99377.58;;;-8.90;99.16
60337;BME280;46978;50.288;28.624;2022-11-20T00:57:07;99379.30;;;-8.89;99.14
60337;BME280;46978;50.288;28.624;2022-11-20T00:58:09;99375.92;;;-8.90;99.17
60337;BME280;46978;50.288;28.624;2022-11-20T00:59:11;99379.30;;;-8.89;99.28
60337;BME280;46978;50.288;28.624;2022-11-20T01:00:14;99374.36;;;-8.88;99.37
60337;BME280;46978;50.288;28.624;2022-11-20T01:01:22;99377.05;;;-8.85;99.48
60337;BME280;46978;50.288;28.624;2022-11-20T01:02:21;99373.00;;;-8.82;99.61
60337;BME280;46978;50.288;28.624;2022-11-20T01:03:22;99362.23;;;-8.80;99.65
60337;BME280;46978;50.288;28.624;2022-11-20T01:04:24;99364.84;;;-8.78;99.61
60337;BME280;46978;50.288;28.624;2022-11-20T01:05:26;99362.41;;;-8.77;99.62
60337;BME280;46978;50.288;28.624;2022-11-20T01:06:33;99368.42;;;-8.75;99.65
60337;BME280;46978;50.288;28.624;2022-11-20T01:07:35;99372.74;;;-8.72;99.62
60337;BME280;46978;50.288;28.624;2022-11-20T01:08:37;99366.09;;;-8.72;99.48
60337;BME280;46978;50.288;28.624;2022-11-20T01:09:39;99364.42;;;-8.71;99.47
60337;BME280;46978;50.288;28.624;2022-11-20T01:10:41;99369.55;;;-8.70;99.46
60337;BME280;46978;50.288;28.624;2022-11-20T01:11:44;99370.41;;;-8.69;99.49
60337;BME280;46978;50.288;28.624;2022-11-20T01:12:46;99382.22;;;-8.68;99.33
60337;BME280;46978;50.288;28.624;2022-11-20T01:13:49;99374.67;;;-8.68;99.25
60337;BME280;46978;50.288;28.624;2022-11-20T01:14:51;99380.55;;;-8.68;99.34
60337;BME280;46978;50.288;28.624;2022-11-20T01:15:53;99387.34;;;-8.67;99.47
60337;BME280;46978;50.288;28.624;2022-11-20T01:16:55;99387.52;;;-8.63;99.58
60337;BME280;46978;50.288;28.624;2022-11-20T01:17:57;99400.18;;;-8.62;99.62
60337;BME280;46978;50.288;28.624;2022-11-20T01:19:00;99396.90;;;-8.61;99.56
60337;BME280;46978;50.288;28.624;2022-11-20T01:20:03;99401.13;;;-8.60;99.36
60337;BME280;46978;50.288;28.624;2022-11-20T01:21:07;99399.41;;;-8.61;99.10
60337;BME280;46978;50.288;28.624;2022-11-20T01:22:09;99389.27;;;-8.62;99.05
60337;BME280;46978;50.288;28.624;2022-11-20T01:23:11;99389.27;;;-8.62;98.96
60337;BME280;46978;50.288;28.624;2022-11-20T01:24:14;99396.80;;;-8.62;98.86
60337;BME280;46978;50.288;28.624;2022-11-20T01:25:16;99395.06;;;-8.63;98.73
60337;BME280;46978;50.288;28.624;2022-11-20T01:26:21;99398.34;;;-8.65;98.64
60337;BME280;46978;50.288;28.624;2022-11-20T01:27:23;99400.86;;;-8.65;98.61
60337;BME280;46978;50.288;28.624;2022-11-20T01:28:25;99408.41;;;-8.65;98.70
60337;BME280;46978;50.288;28.624;2022-11-20T01:29:27;99411.01;;;-8.63;98.83
60337;BME280;46978;50.288;28.624;2022-11-20T01:30:28;99407.73;;;-8.62;99.03
60337;BME280;46978;50.288;28.624;2022-11-20T01:31:33;99408.85;;;-8.57;99.26
60337;BME280;46978;50.288;28.624;2022-11-20T01:32:35;99410.69;;;-8.54;99.53
60337;BME280;46978;50.288;28.624;2022-11-20T01:33:36;99407.59;;;-8.50;99.80
60337;BME280;46978;50.288;28.624;2022-11-20T01:34:38;99411.99;;;-8.46;100.00
60337;BME280;46978;50.288;28.624;2022-11-20T01:35:40;99408.85;;;-8.42;100.00
60337;BME280;46978;50.288;28.624;2022-11-20T01:36:43;99418.23;;;-8.39;100.00
60337;BME280;46978;50.288;28.624;2022-11-20T01:37:44;99427.33;;;-8.41;99.47
60337;BME280;46978;50.288;28.624;2022-11-20T01:38:46;99428.13;;;-8.42;99.27
60337;BME280;46978;50.288;28.624;2022-11-20T01:39:48;99429.84;;;-8.41;99.33
60337;BME280;46978;50.288;28.624;2022-11-20T01:40:54;99433.25;;;-8.41;99.49
60337;BME280;46978;50.288;28.624;2022-11-20T01:41:56;99434.20;;;-8.39;99.60
60337;BME280;46978;50.288;28.624;2022-11-20T01:43:06;99438.45;;;-8.38;99.69
60337;BME280;46978;50.288;28.624;2022-11-20T01:44:04;99437.75;;;-8.35;99.78
60337;BME280;46978;50.288;28.624;2022-11-20T01:46:57;99437.92;;;-8.32;99.66
60337;BME280;46978;50.288;28.624;2022-11-20T01:48:00;99440.53;;;-8.31;99.43
60337;BME280;46978;50.288;28.624;2022-11-20T01:50:35;99440.80;;;-8.26;99.70
60337;BME280;46978;50.288;28.624;2022-11-20T01:51:52;99445.23;;;-8.22;99.81
60337;BME280;46978;50.288;28.624;2022-11-20T01:52:54;99437.77;;;-8.20;99.80
60337;BME280;46978;50.288;28.624;2022-11-20T01:53:58;99439.52;;;-8.19;99.77
60337;BME280;46978;50.288;28.624;2022-11-20T01:55:09;99435.43;;;-8.17;99.85
60337;BME280;46978;50.288;28.624;2022-11-20T01:56:14;99433.86;;;-8.15;99.94
60337;BME280;46978;50.288;28.624;2022-11-20T01:57:17;99437.36;;;-8.13;100.00
60337;BME280;46978;50.288;28.624;2022-11-20T01:58:22;99429.89;;;-8.12;100.00
60337;BME280;46978;50.288;28.624;2022-11-20T01:59:26;99435.88;;;-8.09;100.00
60337;BME280;46978;50.288;28.624;2022-11-20T02:00:29;99430.84;;;-8.09;99.90
60337;BME280;46978;50.288;28.624;2022-11-20T02:01:31;99431.78;;;-8.07;99.79
60337;BME280;46978;50.288;28.624;2022-11-20T02:02:34;99434.30;;;-8.07;99.82
60337;BME280;46978;50.288;28.624;2022-11-20T02:03:36;99435.19;;;-8.07;99.74
60337;BME280;46978;50.288;28.624;2022-11-20T02:04:38;99435.27;;;-8.05;99.57
60337;BME280;46978;50.288;28.624;2022-11-20T02:05:59;99435.27;;;-8.05;99.65
60337;BME280;46978;50.288;28.624;2022-11-20T02:07:02;99431.87;;;-8.06;99.49
60337;BME280;46978;50.288;28.624;2022-11-20T02:08:06;99436.13;;;-8.05;99.27
60337;BME280;46978;50.288;28.624;2022-11-20T02:09:08;99430.23;;;-8.05;99.15
60337;BME280;46978;50.288;28.624;2022-11-20T02:10:11;99432.75;;;-8.05;99.22
60337;BME280;46978;50.288;28.624;2022-11-20T02:11:33;99430.23;;;-8.05;99.22
60337;BME280;46978;50.288;28.624;2022-11-20T02:12:35;99419.45;;;-8.03;99.35
60337;BME280;46978;50.288;28.624;2022-11-20T02:13:36;99427.09;;;-8.01;99.28
60337;BME280;46978;50.288;28.624;2022-11-20T02:14:38;99428.92;;;-7.99;99.50
60337;BME280;46978;50.288;28.624;2022-11-20T02:15:40;99425.72;;;-7.96;99.69
60337;BME280;46978;50.288;28.624;2022-11-20T02:16:47;99420.77;;;-7.95;99.89
60337;BME280;46978;50.288;28.624;2022-11-20T02:17:49;99425.34;;;-7.87;99.98
60337;BME280;46978;50.288;28.624;2022-11-20T02:18:52;99424.66;;;-7.85;99.88
60337;BME280;46978;50.288;28.624;2022-11-20T02:19:55;99428.30;;;-7.80;99.64
60337;BME280;46978;50.288;28.624;2022-11-20T02:21:09;99424.28;;;-7.76;99.93
60337;BME280;46978;50.288;28.624;2022-11-20T02:22:11;99424.28;;;-7.76;99.93
60337;BME280;46978;50.288;28.624;2022-11-20T02:24:28;99421.25;;;-7.70;99.77
60337;BME280;46978;50.288;28.624;2022-11-20T02:25:32;99423.16;;;-7.66;100.00
60337;BME280;46978;50.288;28.624;2022-11-20T02:26:38;99418.38;;;-7.62;100.00
60337;BME280;46978;50.288;28.624;2022-11-20T02:27:40;99416.03;;;-7.59;100.00
60337;BME280;46978;50.288;28.624;2022-11-20T02:28:42;99416.28;;;-7.54;100.00
60337;BME280;46978;50.288;28.624;2022-11-20T02:29:56;99412.27;;;-7.50;100.00
60337;BME280;46978;50.288;28.624;2022-11-20T02:30:58;99413.28;;;-7.47;100.00
60337;BME280;46978;50.288;28.624;2022-11-20T02:32:00;99411.09;;;-7.41;100.00
60337;BME280;46978;50.288;28.624;2022-11-20T02:33:03;99411.27;;;-7.37;100.00
60337;BME280;46978;50.288;28.624;2022-11-20T02:34:06;99418.30;;;-7.32;100.00
60337;BME280;46978;50.288;28.624;2022-11-20T02:36:24;99411.14;;;-7.24;100.00
60337;BME280;46978;50.288;28.624;2022-11-20T02:37:30;99410.53;;;-7.20;100.00
60337;BME280;46978;50.288;28.624;2022-11-20T02:38:33;99420.78;;;-7.17;100.00
60337;BME280;46978;50.288;28.624;2022-11-20T02:39:34;99420.05;;;-7.14;100.00
60337;BME280;46978;50.288;28.624;2022-11-20T02:40:36;99415.98;;;-7.12;100.00
60337;BME280;46978;50.288;28.624;2022-11-20T02:41:38;99424.48;;;-7.10;100.00
60337;BME280;46978;50.288;28.624;2022-11-20T02:42:40;99415.33;;;-7.08;100.00
60337;BME280;46978;50.288;28.624;2022-11-20T02:43:42;99421.34;;;-7.06;100.00
60337;BME280;46978;50.288;28.624;2022-11-20T02:44:44;99428.11;;;-7.05;100.00
60337;BME280;46978;50.288;28.624;2022-11-20T02:45:45;99423.95;;;-7.05;100.00
60337;BME280;46978;50.288;28.624;2022-11-20T02:46:47;99424.11;;;-7.01;100.00
60337;BME280;46978;50.288;28.624;2022-11-20T02:47:49;99425.91;;;-6.99;100.00
60337;BME280;46978;50.288;28.624;2022-11-20T02:48:51;99430.17;;;-6.98;100.00
60337;BME280;46978;50.288;28.624;2022-11-20T02:49:53;99434.36;;;-6.98;99.87
60337;BME280;46978;50.288;28.624;2022-11-20T02:50:55;99435.22;;;-6.98;99.67
60337;BME280;46978;50.288;28.624;2022-11-20T02:51:57;99447.83;;;-6.98;99.31
60337;BME280;46978;50.288;28.624;2022-11-20T02:52:59;99440.95;;;-7.00;99.16
60337;BME280;46978;50.288;28.624;2022-11-20T02:54:00;99441.84;;;-7.00;99.21
60337;BME280;46978;50.288;28.624;2022-11-20T02:55:03;99437.66;;;-6.99;99.22
60337;BME280;46978;50.288;28.624;2022-11-20T02:56:07;99430.09;;;-6.99;99.20
60337;BME280;46978;50.288;28.624;2022-11-20T02:57:09;99427.57;;;-6.99;99.23
60337;BME280;46978;50.288;28.624;2022-11-20T02:58:11;99429.31;;;-6.98;99.41
60337;BME280;46978;50.288;28.624;2022-11-20T02:59:12;99426.06;;;-6.96;99.80
60337;BME280;46978;50.288;28.624;2022-11-20T03:00:15;99428.91;;;-6.90;100.00
60337;BME280;46978;50.288;28.624;2022-11-20T03:01:17;99428.22;;;-6.87;100.00
60337;BME280;46978;50.288;28.624;2022-11-20T03:02:18;99421.73;;;-6.82;100.00
60337;BME280;46978;50.288;28.624;2022-11-20T03:03:20;99419.45;;;-6.77;100.00
60337;BME280;46978;50.288;28.624;2022-11-20T03:04:22;99411.27;;;-6.73;100.00
60337;BME280;46978;50.288;28.624;2022-11-20T03:05:24;99411.42;;;-6.70;100.00
60337;BME280;46978;50.288;28.624;2022-11-20T03:06:26;99414.02;;;-6.69;99.88
60337;BME280;46978;50.288;28.624;2022-11-20T03:07:27;99414.80;;;-6.70;99.31
60337;BME280;46978;50.288;28.624;2022-11-20T03:08:29;99407.97;;;-6.72;98.97
60337;BME280;46978;50.288;28.624;2022-11-20T03:09:31;99403.77;;;-6.72;99.29
60337;BME280;46978;50.288;28.624;2022-11-20T03:10:33;99414.73;;;-6.71;99.33
60337;BME280;46978;50.288;28.624;2022-11-20T03:11:34;99407.16;;;-6.71;99.10
60337;BME280;46978;50.288;28.624;2022-11-20T03:12:36;99406.37;;;-6.70;99.30
60337;BME280;46978;50.288;28.624;2022-11-20T03:13:38;99408.13;;;-6.69;99.52
60337;BME280;46978;50.288;28.624;2022-11-20T03:14:40;99412.44;;;-6.67;99.84
60337;BME280;46978;50.288;28.624;2022-11-20T03:15:42;99409.38;;;-6.61;100.00
60337;BME280;46978;50.288;28.624;2022-11-20T03:16:44;99400.28;;;-6.57;100.00
60337;BME280;46978;50.288;28.624;2022-11-20T03:17:45;99407.23;;;-6.53;100.00
60337;BME280;46978;50.288;28.624;2022-11-20T03:18:47;99404.05;;;-6.49;100.00
60337;BME280;46978;50.288;28.624;2022-11-20T03:19:50;99408.48;;;-6.45;100.00
60337;BME280;46978;50.288;28.624;2022-11-20T03:20:56;99407.77;;;-6.42;100.00
60337;BME280;46978;50.288;28.624;2022-11-20T03:21:57;99407.11;;;-6.38;100.00
60337;BME280;46978;50.288;28.624;2022-11-20T03:22:59;99406.41;;;-6.36;100.00
60337;BME280;46978;50.288;28.624;2022-11-20T03:24:01;99401.52;;;-6.33;100.00
60337;BME280;46978;50.288;28.624;2022-11-20T03:25:04;99401.59;;;-6.31;100.00
60337;BME280;46978;50.288;28.624;2022-11-20T03:26:19;99398.13;;;-6.33;100.00
60337;BME280;46978;50.288;28.624;2022-11-20T03:27:22;99408.46;;;-6.28;100.00
60337;BME280;46978;50.288;28.624;2022-11-20T03:28:23;99408.61;;;-6.25;100.00
60337;BME280;46978;50.288;28.624;2022-11-20T03:29:25;99407.88;;;-6.23;100.00
60337;BME280;46978;50.288;28.624;2022-11-20T03:30:27;99402.83;;;-6.23;100.00
60337;BME280;46978;50.288;28.624;2022-11-20T03:31:32;99397.00;;;-6.22;100.00
60337;BME280;46978;50.288;28.624;2022-11-20T03:32:34;99389.41;;;-6.22;100.00
60337;BME280;46978;50.288;28.624;2022-11-20T03:33:37;99383.59;;;-6.21;99.86
60337;BME280;46978;50.288;28.624;2022-11-20T03:34:38;99369.29;;;-6.20;99.90
60337;BME280;46978;50.288;28.624;2022-11-20T03:35:40;99377.80;;;-6.18;100.00
60337;BME280;46978;50.288;28.624;2022-11-20T03:36:42;99371.18;;;-6.16;99.97
60337;BME280;46978;50.288;28.624;2022-11-20T03:37:44;99378.83;;;-6.15;100.00
60337;BME280;46978;50.288;28.624;2022-11-20T03:38:47;99373.78;;;-6.15;100.00
60337;BME280;46978;50.288;28.624;2022-11-20T03:39:49;99368.80;;;-6.13;100.00
60337;BME280;46978;50.288;28.624;2022-11-20T03:40:50;99370.52;;;-6.12;100.00
60337;BME280;46978;50.288;28.624;2022-11-20T03:41:52;99373.12;;;-6.10;100.00
60337;BME280;46978;50.288;28.624;2022-11-20T03:42:54;99370.59;;;-6.10;100.00
60337;BME280;46978;50.288;28.624;2022-11-20T03:44:00;99367.28;;;-6.09;100.00
60337;BME280;46978;50.288;28.624;2022-11-20T03:45:03;99363.90;;;-6.10;100.00
60337;BME280;46978;50.288;28.624;2022-11-20T03:46:06;99360.56;;;-6.09;100.00
60337;BME280;46978;50.288;28.624;2022-11-20T03:47:08;99362.30;;;-6.08;100.00
60337;BME280;46978;50.288;28.624;2022-11-20T03:48:09;99355.51;;;-6.09;100.00
60337;BME280;46978;50.288;28.624;2022-11-20T03:49:11;99351.34;;;-6.08;100.00
60337;BME280;46978;50.288;28.624;2022-11-20T03:50:14;99347.08;;;-6.09;100.00
60337;BME280;46978;50.288;28.624;2022-11-20T03:51:26;99347.86;;;-6.10;100.00
60337;BME280;46978;50.288;28.624;2022-11-20T03:52:28;99347.78;;;-6.12;99.40
60337;BME280;46978;50.288;28.624;2022-11-20T03:53:30;99343.55;;;-6.13;99.65
60337;BME280;46978;50.288;28.624;2022-11-20T03:54:32;99342.66;;;-6.14;99.78
60337;BME280;46978;50.288;28.624;2022-11-20T03:55:34;99341.02;;;-6.13;99.83
60337;BME280;46978;50.288;28.624;2022-11-20T03:56:38;99343.55;;;-6.13;99.87
60337;BME280;46978;50.288;28.624;2022-11-20T03:57:40;99347.70;;;-6.14;99.91
60337;BME280;46978;50.288;28.624;2022-11-20T03:58:42;99346.92;;;-6.13;99.96
60337;BME280;46978;50.288;28.624;2022-11-20T03:59:44;99343.55;;;-6.13;100.00
60337;BME280;46978;50.288;28.624;2022-11-20T04:00:46;99349.45;;;-6.13;100.00
60337;BME280;46978;50.288;28.624;2022-11-20T04:01:48;99347.00;;;-6.11;100.00
60337;BME280;46978;50.288;28.624;2022-11-20T04:02:50;99348.81;;;-6.08;100.00
60337;BME280;46978;50.288;28.624;2022-11-20T04:03:53;99348.81;;;-6.08;100.00
60337;BME280;46978;50.288;28.624;2022-11-20T04:04:56;99351.34;;;-6.08;100.00
60337;BME280;46978;50.288;28.624;2022-11-20T04:06:15;99354.73;;;-6.08;100.00
60337;BME280;46978;50.288;28.624;2022-11-20T04:07:17;99355.58;;;-6.07;100.00
60337;BME280;46978;50.288;28.624;2022-11-20T04:08:19;99350.53;;;-6.07;100.00
60337;BME280;46978;50.288;28.624;2022-11-20T04:09:21;99348.00;;;-6.07;100.00
60337;BME280;46978;50.288;28.624;2022-11-20T04:10:23;99349.75;;;-6.06;99.86
60337;BME280;46978;50.288;28.624;2022-11-20T04:11:26;99359.00;;;-6.07;99.69
60337;BME280;46978;50.288;28.624;2022-11-20T04:12:33;99348.89;;;-6.07;99.75
60337;BME280;46978;50.288;28.624;2022-11-20T04:13:35;99355.66;;;-6.06;99.84
60337;BME280;46978;50.288;28.624;2022-11-20T04:14:37;99349.82;;;-6.05;99.92
60337;BME280;46978;50.288;28.624;2022-11-20T04:15:38;99350.67;;;-6.04;100.00
60337;BME280;46978;50.288;28.624;2022-11-20T04:16:40;99345.70;;;-6.03;100.00
60337;BME280;46978;50.288;28.624;2022-11-20T04:17:42;99345.77;;;-6.01;100.00
60337;BME280;46978;50.288;28.624;2022-11-20T04:18:44;99344.98;;;-6.00;99.99
60337;BME280;46978;50.288;28.624;2022-11-20T04:19:46;99342.53;;;-5.99;99.91
60337;BME280;46978;50.288;28.624;2022-11-20T04:20:48;99334.21;;;-5.96;99.93
60337;BME280;46978;50.288;28.624;2022-11-20T04:21:50;99332.54;;;-5.96;99.87
60337;BME280;46978;50.288;28.624;2022-11-20T04:22:53;99328.41;;;-5.94;99.74
60337;BME280;46978;50.288;28.624;2022-11-20T04:23:55;99322.51;;;-5.94;99.56
60337;BME280;46978;50.288;28.624;2022-11-20T04:24:57;99328.41;;;-5.94;99.38
60337;BME280;46978;50.288;28.624;2022-11-20T04:26:08;99329.30;;;-5.93;99.28
60337;BME280;46978;50.288;28.624;2022-11-20T04:27:07;99327.56;;;-5.94;99.22
60337;BME280;46978;50.288;28.624;2022-11-20T04:28:09;99332.75;;;-5.91;99.26
60337;BME280;46978;50.288;28.624;2022-11-20T04:29:12;99339.48;;;-5.91;99.23
60337;BME280;46978;50.288;28.624;2022-11-20T04:30:15;99344.61;;;-5.90;99.23
60337;BME280;46978;50.288;28.624;2022-11-20T04:31:21;99344.67;;;-5.88;99.08
60337;BME280;46978;50.288;28.624;2022-11-20T04:32:23;99340.48;;;-5.88;99.06
60337;BME280;46978;50.288;28.624;2022-11-20T04:33:25;99335.50;;;-5.86;99.10
60337;BME280;46978;50.288;28.624;2022-11-20T04:34:27;99344.89;;;-5.84;99.09
60337;BME280;46978;50.288;28.624;2022-11-20T04:35:28;99340.63;;;-5.85;98.93
60337;BME280;46978;50.288;28.624;2022-11-20T04:36:32;99342.37;;;-5.84;98.78
60337;BME280;46978;50.288;28.624;2022-11-20T04:37:34;99352.47;;;-5.84;98.72
60337;BME280;46978;50.288;28.624;2022-11-20T04:38:36;99350.80;;;-5.83;98.74
60337;BME280;46978;50.288;28.624;2022-11-20T04:39:38;99347.56;;;-5.81;98.82
60337;BME280;46978;50.288;28.624;2022-11-20T04:40:40;99346.75;;;-5.80;98.85
60337;BME280;46978;50.288;28.624;2022-11-20T04:41:42;99333.33;;;-5.79;98.71
60337;BME280;46978;50.288;28.624;2022-11-20T04:42:44;99339.23;;;-5.78;98.63
60337;BME280;46978;50.288;28.624;2022-11-20T04:43:51;99339.30;;;-5.77;98.67
60337;BME280;46978;50.288;28.624;2022-11-20T04:44:50;99333.47;;;-5.76;98.61
60337;BME280;46978;50.288;28.624;2022-11-20T04:45:53;99331.02;;;-5.74;98.57
60337;BME280;46978;50.288;28.624;2022-11-20T04:46:55;99316.70;;;-5.73;98.53
60337;BME280;46978;50.288;28.624;2022-11-20T04:47:57;99316.77;;;-5.72;98.49
60337;BME280;46978;50.288;28.624;2022-11-20T04:48:59;99315.20;;;-5.70;98.46
60337;BME280;46978;50.288;28.624;2022-11-20T04:50:01;99316.91;;;-5.69;98.39
60337;BME280;46978;50.288;28.624;2022-11-20T04:51:04;99306.02;;;-5.68;98.06
60337;BME280;46978;50.288;28.624;2022-11-20T04:52:06;99306.02;;;-5.68;98.06
60337;BME280;46978;50.288;28.624;2022-11-20T04:53:08;99301.03;;;-5.66;98.06
60337;BME280;46978;50.288;28.624;2022-11-20T04:54:11;99298.51;;;-5.66;98.03
60337;BME280;46978;50.288;28.624;2022-11-20T04:55:12;99295.19;;;-5.65;97.87
60337;BME280;46978;50.288;28.624;2022-11-20T04:56:15;99301.95;;;-5.64;97.58
60337;BME280;46978;50.288;28.624;2022-11-20T04:57:17;99297.72;;;-5.65;97.42
60337;BME280;46978;50.288;28.624;2022-11-20T04:58:18;99306.16;;;-5.65;97.24
60337;BME280;46978;50.288;28.624;2022-11-20T04:59:20;99295.05;;;-5.68;96.99
60337;BME280;46978;50.288;28.624;2022-11-20T05:00:22;99302.78;;;-5.65;97.01
60337;BME280;46978;50.288;28.624;2022-11-20T05:01:24;99302.78;;;-5.65;97.01
60337;BME280;46978;50.288;28.624;2022-11-20T05:02:26;99297.72;;;-5.65;96.86
60337;BME280;46978;50.288;28.624;2022-11-20T05:03:28;99300.25;;;-5.65;96.58
60337;BME280;46978;50.288;28.624;2022-11-20T05:04:30;99303.63;;;-5.65;96.31
60337;BME280;46978;50.288;28.624;2022-11-20T05:05:33;99305.30;;;-5.65;96.26
60337;BME280;46978;50.288;28.624;2022-11-20T05:06:35;99306.09;;;-5.66;96.21
60337;BME280;46978;50.288;28.624;2022-11-20T05:07:36;99307.83;;;-5.65;95.98
60337;BME280;46978;50.288;28.624;2022-11-20T05:08:38;99306.09;;;-5.66;95.51
60337;BME280;46978;50.288;28.624;2022-11-20T05:09:40;99306.02;;;-5.68;95.50
60337;BME280;46978;50.288;28.624;2022-11-20T05:10:42;99302.64;;;-5.68;95.18
60337;BME280;46978;50.288;28.624;2022-11-20T05:11:44;99296.62;;;-5.70;94.97
60337;BME280;46978;50.288;28.624;2022-11-20T05:12:46;99294.91;;;-5.71;95.12
60337;BME280;46978;50.288;28.624;2022-11-20T05:13:49;99300.89;;;-5.69;95.21
60337;BME280;46978;50.288;28.624;2022-11-20T05:14:51;99292.45;;;-5.70;95.26
60337;BME280;46978;50.288;28.624;2022-11-20T05:15:53;99287.33;;;-5.71;94.89
60337;BME280;46978;50.288;28.624;2022-11-20T05:16:55;99284.80;;;-5.71;94.69
60337;BME280;46978;50.288;28.624;2022-11-20T05:17:57;99283.06;;;-5.72;94.54
60337;BME280;46978;50.288;28.624;2022-11-20T05:18:59;99291.50;;;-5.72;94.46
60337;BME280;46978;50.288;28.624;2022-11-20T05:20:00;99289.79;;;-5.73;94.21
60337;BME280;46978;50.288;28.624;2022-11-20T05:21:02;99298.23;;;-5.72;93.87
60337;BME280;46978;50.288;28.624;2022-11-20T05:22:04;99291.43;;;-5.73;93.86
60337;BME280;46978;50.288;28.624;2022-11-20T05:23:06;99288.05;;;-5.74;93.93
60337;BME280;46978;50.288;28.624;2022-11-20T05:24:08;99286.31;;;-5.75;93.84
60337;BME280;46978;50.288;28.624;2022-11-20T05:25:10;99292.17;;;-5.76;93.74
60337;BME280;46978;50.288;28.624;2022-11-20T05:26:19;99292.17;;;-5.76;93.75
60337;BME280;46978;50.288;28.624;2022-11-20T05:27:21;99293.03;;;-5.76;93.77
60337;BME280;46978;50.288;28.624;2022-11-20T05:28:23;99287.13;;;-5.76;93.91
60337;BME280;46978;50.288;28.624;2022-11-20T05:29:25;99297.23;;;-5.76;93.92
60337;BME280;46978;50.288;28.624;2022-11-20T05:30:27;99283.71;;;-5.77;93.91
60337;BME280;46978;50.288;28.624;2022-11-20T05:31:29;99288.77;;;-5.77;93.90
60337;BME280;46978;50.288;28.624;2022-11-20T05:32:31;99289.65;;;-5.76;94.01